sensor_id;sensor_type;location;lat;lon;timestamp;pressure;altitude;pressure_sealevel;temperature;humidity
42433;BME280;28071;48.232;20.668;2023-06-24T00:01:32;99692.13;;;18.34;100.00
42433;BME280;28071;48.232;20.668;2023-06-24T00:06:33;99666.47;;;18.11;100.00
42433;BME280;28071;48.232;20.668;2023-06-24T00:11:34;99706.22;;;18.62;100.00
42433;BME280;28071;48.232;20.668;2023-06-24T00:16:34;99680.56;;;18.44;100.00
42433;BME280;28071;48.232;20.668;2023-06-24T00:21:36;99685.16;;;18.43;100.00
42433;BME280;28071;48.232;20.668;2023-06-24T00:26:37;99662.53;;;18.39;100.00
42433;BME280;28071;48.232;20.668;2023-06-24T00:31:38;99618.63;;;18.34;100.00
42433;BME280;28071;48.232;20.668;2023-06-24T00:36:38;99637.75;;;18.37;100.00
42433;BME280;28071;48.232;20.668;2023-06-24T00:41:39;99617.22;;;18.11;100.00
42433;BME280;28071;48.232;20.668;2023-06-24T00:46:39;99577.66;;;18.06;100.00
42433;BME280;28071;48.232;20.668;2023-06-24T00:51:40;99573.84;;;17.97;100.00
42433;BME280;28071;48.232;20.668;2023-06-24T00:56:50;99542.09;;;18.04;100.00
42433;BME280;28071;48.232;20.668;2023-06-24T01:01:50;99531.34;;;17.99;100.00
42433;BME280;28071;48.232;20.668;2023-06-24T01:06:53;99517.91;;;17.99;100.00
42433;BME280;28071;48.232;20.668;2023-06-24T01:11:55;99534.84;;;17.99;100.00
42433;BME280;28071;48.232;20.668;2023-06-24T01:17:30;99653.00;;;18.01;100.00
42433;BME280;28071;48.232;20.668;2023-06-24T01:23:11;99650.53;;;17.94;100.00
42433;BME280;28071;48.232;20.668;2023-06-24T01:33:50;99638.44;;;17.97;100.00
42433;BME280;28071;48.232;20.668;2023-06-24T01:39:13;99627.41;;;17.98;100.00
42433;BME280;28071;48.232;20.668;2023-06-24T01:44:17;99629.03;;;18.05;100.00
42433;BME280;28071;48.232;20.668;2023-06-24T01:49:19;99629.34;;;18.13;100.00
42433;BME280;28071;48.232;20.668;2023-06-24T01:54:22;99634.47;;;18.15;100.00
42433;BME280;28071;48.232;20.668;2023-06-24T01:59:25;99609.41;;;18.09;100.00
42433;BME280;28071;48.232;20.668;2023-06-24T02:04:28;99603.78;;;18.21;100.00
42433;BME280;28071;48.232;20.668;2023-06-24T02:09:32;99567.41;;;17.93;100.00
42433;BME280;28071;48.232;20.668;2023-06-24T02:14:33;99605.13;;;18.18;100.00
42433;BME280;28071;48.232;20.668;2023-06-24T02:19:37;99581.72;;;18.14;100.00
42433;BME280;28071;48.232;20.668;2023-06-24T02:24:39;99590.88;;;18.23;100.00
42433;BME280;28071;48.232;20.668;2023-06-24T02:29:41;99586.84;;;18.25;100.00
42433;BME280;28071;48.232;20.668;2023-06-24T02:34:42;99582.25;;;18.16;100.00
42433;BME280;28071;48.232;20.668;2023-06-24T02:39:43;99593.31;;;18.29;100.00
42433;BME280;28071;48.232;20.668;2023-06-24T02:44:44;99593.56;;;18.18;100.00
42433;BME280;28071;48.232;20.668;2023-06-24T02:49:46;99579.28;;;18.07;100.00
42433;BME280;28071;48.232;20.668;2023-06-24T02:54:48;99578.75;;;18.15;100.00
42433;BME280;28071;48.232;20.668;2023-06-24T02:59:49;99596.00;;;18.29;100.00
42433;BME280;28071;48.232;20.668;2023-06-24T03:04:53;99566.94;;;18.21;100.00
42433;BME280;28071;48.232;20.668;2023-06-24T03:09:54;99585.50;;;18.38;100.00
42433;BME280;28071;48.232;20.668;2023-06-24T03:14:54;99583.34;;;18.35;100.00
42433;BME280;28071;48.232;20.668;2023-06-24T03:19:55;99581.22;;;18.37;100.00
42433;BME280;28071;48.232;20.668;2023-06-24T03:24:55;99589.84;;;18.44;100.00
42433;BME280;28071;48.232;20.668;2023-06-24T03:29:56;99603.28;;;18.54;100.00
42433;BME280;28071;48.232;20.668;2023-06-24T03:34:56;99589.00;;;18.49;100.00
42433;BME280;28071;48.232;20.668;2023-06-24T03:39:56;99599.25;;;18.62;100.00
42433;BME280;28071;48.232;20.668;2023-06-24T03:44:57;99591.97;;;18.42;100.00
42433;BME280;28071;48.232;20.668;2023-06-24T03:49:58;99613.81;;;18.46;100.00
42433;BME280;28071;48.232;20.668;2023-06-24T03:54:58;99547.50;;;18.04;100.00
42433;BME280;28071;48.232;20.668;2023-06-24T03:59:58;99590.34;;;18.26;100.00
42433;BME280;28071;48.232;20.668;2023-06-24T04:04:59;99615.94;;;18.39;100.00
42433;BME280;28071;48.232;20.668;2023-06-24T04:09:59;99622.97;;;18.45;100.00
42433;BME280;28071;48.232;20.668;2023-06-24T04:15:00;99614.03;;;18.34;100.00
42433;BME280;28071;48.232;20.668;2023-06-24T04:20:00;99632.94;;;18.44;100.00
42433;BME280;28071;48.232;20.668;2023-06-24T04:25:05;99633.19;;;18.48;100.00
42433;BME280;28071;48.232;20.668;2023-06-24T04:30:06;99644.75;;;18.48;100.00
42433;BME280;28071;48.232;20.668;2023-06-24T04:35:07;99636.44;;;18.55;100.00
42433;BME280;28071;48.232;20.668;2023-06-24T04:40:09;99642.66;;;18.66;100.00
42433;BME280;28071;48.232;20.668;2023-06-24T04:45:09;99629.19;;;18.66;100.00
42433;BME280;28071;48.232;20.668;2023-06-24T04:50:10;99639.72;;;18.82;100.00
42433;BME280;28071;48.232;20.668;2023-06-24T04:55:11;99645.91;;;18.78;100.00
42433;BME280;28071;48.232;20.668;2023-06-24T05:00:11;99673.66;;;18.78;100.00
42433;BME280;28071;48.232;20.668;2023-06-24T05:05:12;99677.44;;;18.82;100.00
42433;BME280;28071;48.232;20.668;2023-06-24T05:10:12;99673.66;;;18.99;100.00
42433;BME280;28071;48.232;20.668;2023-06-24T05:15:13;99676.09;;;19.21;100.00
42433;BME280;28071;48.232;20.668;2023-06-24T05:20:13;99676.34;;;19.29;100.00
42433;BME280;28071;48.232;20.668;2023-06-24T05:25:14;99701.41;;;19.50;100.00
42433;BME280;28071;48.232;20.668;2023-06-24T05:30:14;99699.75;;;19.75;100.00
42433;BME280;28071;48.232;20.668;2023-06-24T05:35:15;99720.50;;;19.79;100.00
42433;BME280;28071;48.232;20.668;2023-06-24T05:40:15;99717.75;;;20.05;100.00
42433;BME280;28071;48.232;20.668;2023-06-24T05:45:16;99715.56;;;20.02;100.00
42433;BME280;28071;48.232;20.668;2023-06-24T05:50:16;99698.50;;;20.16;100.00
42433;BME280;28071;48.232;20.668;2023-06-24T05:55:17;99731.91;;;20.41;100.00
42433;BME280;28071;48.232;20.668;2023-06-24T06:00:18;99749.59;;;20.72;100.00
42433;BME280;28071;48.232;20.668;2023-06-24T06:05:18;99764.75;;;20.68;100.00
42433;BME280;28071;48.232;20.668;2023-06-24T06:10:19;99759.56;;;20.77;100.00
42433;BME280;28071;48.232;20.668;2023-06-24T06:15:20;99766.06;;;20.76;100.00
42433;BME280;28071;48.232;20.668;2023-06-24T06:20:20;99787.16;;;21.13;100.00
42433;BME280;28071;48.232;20.668;2023-06-24T06:25:20;99788.78;;;21.53;100.00
42433;BME280;28071;48.232;20.668;2023-06-24T06:30:21;99774.72;;;21.80;100.00
42433;BME280;28071;48.232;20.668;2023-06-24T06:35:22;99798.66;;;21.97;100.00
42433;BME280;28071;48.232;20.668;2023-06-24T06:40:22;99788.59;;;22.27;100.00
42433;BME280;28071;48.232;20.668;2023-06-24T06:45:23;99800.75;;;22.53;100.00
42433;BME280;28071;48.232;20.668;2023-06-24T06:50:23;99803.38;;;22.82;100.00
42433;BME280;28071;48.232;20.668;2023-06-24T06:55:24;99806.66;;;22.79;100.00
42433;BME280;28071;48.232;20.668;2023-06-24T07:00:24;99795.66;;;22.70;100.00
42433;BME280;28071;48.232;20.668;2023-06-24T07:05:25;99803.69;;;22.57;100.00
42433;BME280;28071;48.232;20.668;2023-06-24T07:10:25;99799.81;;;22.63;100.00
42433;BME280;28071;48.232;20.668;2023-06-24T07:15:25;99797.78;;;22.74;100.00
42433;BME280;28071;48.232;20.668;2023-06-24T07:20:26;99793.34;;;23.02;100.00
42433;BME280;28071;48.232;20.668;2023-06-24T07:25:26;99796.09;;;23.34;100.00
42433;BME280;28071;48.232;20.668;2023-06-24T07:30:28;99795.75;;;23.73;100.00
42433;BME280;28071;48.232;20.668;2023-06-24T07:35:29;99789.81;;;23.85;100.00
42433;BME280;28071;48.232;20.668;2023-06-24T07:40:29;99805.53;;;24.02;100.00
42433;BME280;28071;48.232;20.668;2023-06-24T07:45:30;99804.44;;;24.03;100.00
42433;BME280;28071;48.232;20.668;2023-06-24T07:50:30;99784.13;;;24.14;100.00
42433;BME280;28071;48.232;20.668;2023-06-24T07:55:32;99802.66;;;24.40;100.00
42433;BME280;28071;48.232;20.668;2023-06-24T08:00:33;99801.66;;;24.49;100.00
42433;BME280;28071;48.232;20.668;2023-06-24T08:05:33;99806.88;;;24.59;100.00
42433;BME280;28071;48.232;20.668;2023-06-24T08:10:34;99804.72;;;24.84;100.00
42433;BME280;28071;48.232;20.668;2023-06-24T08:15:34;99811.03;;;25.07;100.00
42433;BME280;28071;48.232;20.668;2023-06-24T08:20:35;99816.00;;;25.27;100.00
42433;BME280;28071;48.232;20.668;2023-06-24T08:25:35;99806.41;;;25.75;100.00
42433;BME280;28071;48.232;20.668;2023-06-24T08:30:36;99800.75;;;25.71;100.00
42433;BME280;28071;48.232;20.668;2023-06-24T08:35:36;99789.75;;;25.31;100.00
42433;BME280;28071;48.232;20.668;2023-06-24T08:40:38;99777.78;;;24.96;100.00
42433;BME280;28071;48.232;20.668;2023-06-24T08:45:40;99788.72;;;25.41;100.00
42433;BME280;28071;48.232;20.668;2023-06-24T08:50:44;99766.22;;;25.58;98.39
42433;BME280;28071;48.232;20.668;2023-06-24T08:55:47;99732.84;;;25.75;96.68
42433;BME280;28071;48.232;20.668;2023-06-24T09:00:49;99805.81;;;26.17;90.53
42433;BME280;28071;48.232;20.668;2023-06-24T09:05:50;99798.00;;;26.33;92.78
42433;BME280;28071;48.232;20.668;2023-06-24T09:10:53;99790.28;;;26.26;92.22
42433;BME280;28071;48.232;20.668;2023-06-24T09:15:57;99796.66;;;26.13;96.68
42433;BME280;28071;48.232;20.668;2023-06-24T09:20:57;99763.50;;;26.28;91.45
42433;BME280;28071;48.232;20.668;2023-06-24T09:25:58;99799.25;;;26.18;89.83
42433;BME280;28071;48.232;20.668;2023-06-24T09:31:10;99786.78;;;25.86;92.45
42433;BME280;28071;48.232;20.668;2023-06-24T09:36:15;99788.50;;;25.82;92.15
42433;BME280;28071;48.232;20.668;2023-06-24T09:41:16;99806.09;;;26.07;93.53
42433;BME280;28071;48.232;20.668;2023-06-24T09:46:17;99789.09;;;26.59;90.21
42433;BME280;28071;48.232;20.668;2023-06-24T09:51:18;99794.28;;;26.69;86.76
42433;BME280;28071;48.232;20.668;2023-06-24T09:56:19;99773.75;;;27.32;86.68
42433;BME280;28071;48.232;20.668;2023-06-24T10:01:20;99806.22;;;28.06;81.16
42433;BME280;28071;48.232;20.668;2023-06-24T10:06:21;99779.41;;;28.29;78.30
42433;BME280;28071;48.232;20.668;2023-06-24T10:11:22;99793.56;;;28.31;77.12
42433;BME280;28071;48.232;20.668;2023-06-24T10:16:23;99770.44;;;27.82;81.45
42433;BME280;28071;48.232;20.668;2023-06-24T10:21:43;99784.72;;;27.87;79.51
42433;BME280;28071;48.232;20.668;2023-06-24T10:26:44;99756.88;;;28.32;78.70
42433;BME280;28071;48.232;20.668;2023-06-24T10:42:27;99772.56;;;28.73;77.83
42433;BME280;28071;48.232;20.668;2023-06-24T10:47:29;99753.50;;;28.56;78.22
42433;BME280;28071;48.232;20.668;2023-06-24T10:52:30;99771.53;;;28.57;79.15
42433;BME280;28071;48.232;20.668;2023-06-24T10:57:30;99767.63;;;29.09;79.22
42433;BME280;28071;48.232;20.668;2023-06-24T11:02:31;99763.38;;;29.65;75.18
42433;BME280;28071;48.232;20.668;2023-06-24T11:07:36;99765.88;;;29.58;72.88
42433;BME280;28071;48.232;20.668;2023-06-24T11:12:38;99759.94;;;29.56;73.02
42433;BME280;28071;48.232;20.668;2023-06-24T11:17:40;99757.81;;;29.86;71.81
42433;BME280;28071;48.232;20.668;2023-06-24T11:22:41;99754.50;;;30.29;70.91
42433;BME280;28071;48.232;20.668;2023-06-24T11:27:42;99758.56;;;30.84;70.84
42433;BME280;28071;48.232;20.668;2023-06-24T11:32:43;99734.63;;;31.13;69.98
42433;BME280;28071;48.232;20.668;2023-06-24T11:37:46;99736.53;;;31.68;64.16
42433;BME280;28071;48.232;20.668;2023-06-24T11:42:48;99727.56;;;32.03;61.32
42433;BME280;28071;48.232;20.668;2023-06-24T11:47:50;99731.81;;;32.32;58.02
42433;BME280;28071;48.232;20.668;2023-06-24T11:52:53;99720.09;;;32.03;58.64
42433;BME280;28071;48.232;20.668;2023-06-24T11:58:03;99733.69;;;32.12;56.52
42433;BME280;28071;48.232;20.668;2023-06-24T12:03:08;99724.16;;;32.96;55.53
42433;BME280;28071;48.232;20.668;2023-06-24T12:08:10;99729.53;;;32.89;56.75
42433;BME280;28071;48.232;20.668;2023-06-24T12:13:11;99718.94;;;33.33;56.97
42433;BME280;28071;48.232;20.668;2023-06-24T12:18:12;99712.34;;;33.37;59.14
42433;BME280;28071;48.232;20.668;2023-06-24T12:23:13;99702.00;;;33.11;56.50
42433;BME280;28071;48.232;20.668;2023-06-24T12:28:13;99711.66;;;32.28;62.97
42433;BME280;28071;48.232;20.668;2023-06-24T12:33:13;99683.22;;;32.05;59.84
42433;BME280;28071;48.232;20.668;2023-06-24T12:38:14;99680.94;;;32.10;57.48
42433;BME280;28071;48.232;20.668;2023-06-24T12:43:16;99708.78;;;31.89;57.47
42433;BME280;28071;48.232;20.668;2023-06-24T12:48:16;99713.06;;;32.57;57.96
42433;BME280;28071;48.232;20.668;2023-06-24T12:53:17;99712.94;;;32.50;56.18
42433;BME280;28071;48.232;20.668;2023-06-24T12:58:23;99707.44;;;33.08;55.74
42433;BME280;28071;48.232;20.668;2023-06-24T13:03:24;99696.13;;;32.55;55.12
42433;BME280;28071;48.232;20.668;2023-06-24T13:08:24;99699.66;;;33.79;54.42
42433;BME280;28071;48.232;20.668;2023-06-24T13:13:25;99692.53;;;32.90;55.61
42433;BME280;28071;48.232;20.668;2023-06-24T13:18:25;99693.44;;;32.78;55.04
42433;BME280;28071;48.232;20.668;2023-06-24T13:23:25;99705.75;;;33.42;55.54
42433;BME280;28071;48.232;20.668;2023-06-24T13:28:26;99697.50;;;33.91;53.73
42433;BME280;28071;48.232;20.668;2023-06-24T13:33:26;99694.31;;;32.82;56.18
42433;BME280;28071;48.232;20.668;2023-06-24T13:38:27;99692.72;;;32.42;56.22
42433;BME280;28071;48.232;20.668;2023-06-24T13:43:27;99696.34;;;31.95;56.15
42433;BME280;28071;48.232;20.668;2023-06-24T13:48:28;99697.25;;;31.84;60.22
42433;BME280;28071;48.232;20.668;2023-06-24T13:53:28;99692.25;;;31.73;60.53
42433;BME280;28071;48.232;20.668;2023-06-24T13:58:28;99698.53;;;31.58;60.67
42433;BME280;28071;48.232;20.668;2023-06-24T14:03:29;99689.44;;;31.86;59.14
42433;BME280;28071;48.232;20.668;2023-06-24T14:08:30;99699.34;;;31.43;64.05
42433;BME280;28071;48.232;20.668;2023-06-24T14:13:32;99692.91;;;31.07;66.47
42433;BME280;28071;48.232;20.668;2023-06-24T14:18:33;99673.72;;;30.67;67.88
42433;BME280;28071;48.232;20.668;2023-06-24T14:23:34;99683.34;;;30.89;67.04
42433;BME280;28071;48.232;20.668;2023-06-24T14:28:35;99666.28;;;30.15;67.59
42433;BME280;28071;48.232;20.668;2023-06-24T14:33:36;99671.75;;;29.91;70.29
42433;BME280;28071;48.232;20.668;2023-06-24T14:38:36;99660.03;;;29.78;71.37
42433;BME280;28071;48.232;20.668;2023-06-24T14:43:37;99655.63;;;30.38;68.36
42433;BME280;28071;48.232;20.668;2023-06-24T14:48:37;99652.25;;;30.85;65.98
42433;BME280;28071;48.232;20.668;2023-06-24T14:53:37;99639.81;;;30.35;68.37
42433;BME280;28071;48.232;20.668;2023-06-24T14:58:38;99646.94;;;29.99;69.46
42433;BME280;28071;48.232;20.668;2023-06-24T15:03:38;99650.31;;;29.23;72.06
42433;BME280;28071;48.232;20.668;2023-06-24T15:08:39;99694.25;;;29.14;73.99
42433;BME280;28071;48.232;20.668;2023-06-24T15:13:39;99728.88;;;28.35;74.43
42433;BME280;28071;48.232;20.668;2023-06-24T15:18:47;99746.34;;;25.57;80.47
42433;BME280;28071;48.232;20.668;2023-06-24T15:23:47;99752.19;;;24.61;89.12
42433;BME280;28071;48.232;20.668;2023-06-24T15:28:48;99737.09;;;23.72;98.45
42433;BME280;28071;48.232;20.668;2023-06-24T15:33:48;99742.22;;;23.09;100.00
42433;BME280;28071;48.232;20.668;2023-06-24T15:38:49;99714.19;;;23.46;96.68
42433;BME280;28071;48.232;20.668;2023-06-24T15:43:49;99746.72;;;24.61;86.06
42433;BME280;28071;48.232;20.668;2023-06-24T15:48:49;99726.72;;;23.61;89.26
42433;BME280;28071;48.232;20.668;2023-06-24T15:53:50;99741.03;;;23.94;91.02
42433;BME280;28071;48.232;20.668;2023-06-24T15:58:50;99747.38;;;23.75;95.24
42433;BME280;28071;48.232;20.668;2023-06-24T16:03:51;99716.28;;;23.35;100.00
42433;BME280;28071;48.232;20.668;2023-06-24T16:08:51;99706.31;;;23.31;100.00
42433;BME280;28071;48.232;20.668;2023-06-24T16:13:52;99732.78;;;23.39;100.00
42433;BME280;28071;48.232;20.668;2023-06-24T16:18:52;99721.16;;;23.19;100.00
42433;BME280;28071;48.232;20.668;2023-06-24T16:23:52;99731.97;;;23.06;100.00
42433;BME280;28071;48.232;20.668;2023-06-24T16:28:53;99732.03;;;22.82;100.00
42433;BME280;28071;48.232;20.668;2023-06-24T16:33:54;99770.63;;;22.97;100.00
42433;BME280;28071;48.232;20.668;2023-06-24T16:38:55;99781.38;;;22.84;100.00
42433;BME280;28071;48.232;20.668;2023-06-24T16:43:55;99773.22;;;22.22;100.00
42433;BME280;28071;48.232;20.668;2023-06-24T16:48:55;99767.91;;;22.36;100.00
42433;BME280;28071;48.232;20.668;2023-06-24T16:53:56;99753.31;;;22.32;100.00
42433;BME280;28071;48.232;20.668;2023-06-24T16:58:56;99747.66;;;22.28;100.00
42433;BME280;28071;48.232;20.668;2023-06-24T17:03:57;99760.66;;;22.31;100.00
42433;BME280;28071;48.232;20.668;2023-06-24T17:08:57;99761.72;;;22.06;100.00
42433;BME280;28071;48.232;20.668;2023-06-24T17:13:58;99753.38;;;22.03;100.00
42433;BME280;28071;48.232;20.668;2023-06-24T17:18:58;99742.75;;;21.82;100.00
42433;BME280;28071;48.232;20.668;2023-06-24T17:23:59;99764.50;;;22.01;100.00
42433;BME280;28071;48.232;20.668;2023-06-24T17:29:00;99781.50;;;22.07;100.00
42433;BME280;28071;48.232;20.668;2023-06-24T17:34:01;99767.91;;;21.83;100.00
42433;BME280;28071;48.232;20.668;2023-06-24T17:39:01;99770.88;;;21.86;100.00
42433;BME280;28071;48.232;20.668;2023-06-24T17:44:01;99732.78;;;21.15;100.00
42433;BME280;28071;48.232;20.668;2023-06-24T17:49:02;99782.06;;;21.12;100.00
42433;BME280;28071;48.232;20.668;2023-06-24T17:54:03;99794.75;;;21.16;100.00
42433;BME280;28071;48.232;20.668;2023-06-24T17:59:03;99803.13;;;21.15;100.00
42433;BME280;28071;48.232;20.668;2023-06-24T18:04:03;99797.56;;;21.01;100.00
42433;BME280;28071;48.232;20.668;2023-06-24T18:09:04;99814.31;;;20.98;100.00
42433;BME280;28071;48.232;20.668;2023-06-24T18:14:04;99826.31;;;20.82;100.00
42433;BME280;28071;48.232;20.668;2023-06-24T18:19:05;99822.88;;;20.66;100.00
42433;BME280;28071;48.232;20.668;2023-06-24T18:24:06;99817.72;;;20.69;100.00
42433;BME280;28071;48.232;20.668;2023-06-24T18:29:06;99822.66;;;20.52;100.00
42433;BME280;28071;48.232;20.668;2023-06-24T18:34:06;99854.78;;;20.59;100.00
42433;BME280;28071;48.232;20.668;2023-06-24T18:39:07;99859.47;;;20.22;100.00
42433;BME280;28071;48.232;20.668;2023-06-24T18:44:07;99836.53;;;20.15;100.00
42433;BME280;28071;48.232;20.668;2023-06-24T18:49:10;99848.66;;;20.22;100.00
42433;BME280;28071;48.232;20.668;2023-06-24T18:54:10;99863.81;;;20.13;100.00
42433;BME280;28071;48.232;20.668;2023-06-24T18:59:11;99865.16;;;20.11;100.00
42433;BME280;28071;48.232;20.668;2023-06-24T19:04:12;99873.28;;;19.95;100.00
42433;BME280;28071;48.232;20.668;2023-06-24T19:09:12;99893.25;;;19.79;100.00
42433;BME280;28071;48.232;20.668;2023-06-24T19:14:13;99895.63;;;19.55;100.00
42433;BME280;28071;48.232;20.668;2023-06-24T19:19:13;99880.53;;;19.54;100.00
42433;BME280;28071;48.232;20.668;2023-06-24T19:24:14;99885.91;;;19.44;100.00
42433;BME280;28071;48.232;20.668;2023-06-24T19:29:14;99899.69;;;19.53;100.00
42433;BME280;28071;48.232;20.668;2023-06-24T19:34:14;99913.09;;;19.17;100.00
42433;BME280;28071;48.232;20.668;2023-06-24T19:39:16;99897.91;;;18.96;100.00
42433;BME280;28071;48.232;20.668;2023-06-24T19:44:17;99901.19;;;18.98;100.00
42433;BME280;28071;48.232;20.668;2023-06-24T19:49:17;99883.84;;;18.78;100.00
42433;BME280;28071;48.232;20.668;2023-06-24T19:54:18;99887.38;;;18.89;100.00
42433;BME280;28071;48.232;20.668;2023-06-24T19:59:18;99871.47;;;18.88;100.00
42433;BME280;28071;48.232;20.668;2023-06-24T20:04:18;99868.13;;;18.65;100.00
42433;BME280;28071;48.232;20.668;2023-06-24T20:09:19;99867.31;;;18.65;100.00
42433;BME280;28071;48.232;20.668;2023-06-24T20:14:20;99869.81;;;18.71;100.00
42433;BME280;28071;48.232;20.668;2023-06-24T20:19:20;99902.16;;;18.76;100.00
42433;BME280;28071;48.232;20.668;2023-06-24T20:24:21;99904.44;;;18.52;100.00
42433;BME280;28071;48.232;20.668;2023-06-24T20:29:21;99902.72;;;18.36;100.00
42433;BME280;28071;48.232;20.668;2023-06-24T20:34:21;99901.09;;;18.30;100.00
42433;BME280;28071;48.232;20.668;2023-06-24T20:39:22;99904.00;;;18.23;100.00
42433;BME280;28071;48.232;20.668;2023-06-24T20:44:22;99877.00;;;18.13;100.00
42433;BME280;28071;48.232;20.668;2023-06-24T20:49:23;99873.22;;;18.09;100.00
42433;BME280;28071;48.232;20.668;2023-06-24T20:54:24;99872.78;;;18.27;100.00
42433;BME280;28071;48.232;20.668;2023-06-24T20:59:24;99855.53;;;18.28;100.00
42433;BME280;28071;48.232;20.668;2023-06-24T21:04:24;99866.66;;;18.37;100.00
42433;BME280;28071;48.232;20.668;2023-06-24T21:09:26;99861.00;;;18.44;100.00
42433;BME280;28071;48.232;20.668;2023-06-24T21:14:26;99854.28;;;18.41;100.00
42433;BME280;28071;48.232;20.668;2023-06-24T21:19:26;99818.59;;;18.14;100.00
42433;BME280;28071;48.232;20.668;2023-06-24T21:24:27;99865.41;;;18.13;100.00
42433;BME280;28071;48.232;20.668;2023-06-24T21:29:27;99863.44;;;17.98;100.00
42433;BME280;28071;48.232;20.668;2023-06-24T21:34:28;99826.03;;;17.64;100.00
42433;BME280;28071;48.232;20.668;2023-06-24T21:39:28;99856.97;;;17.67;100.00
42433;BME280;28071;48.232;20.668;2023-06-24T21:44:28;99845.19;;;17.41;100.00
42433;BME280;28071;48.232;20.668;2023-06-24T21:49:29;99845.75;;;17.43;100.00
42433;BME280;28071;48.232;20.668;2023-06-24T21:54:30;99848.78;;;17.52;100.00
42433;BME280;28071;48.232;20.668;2023-06-24T21:59:30;99850.16;;;17.54;100.00
42433;BME280;28071;48.232;20.668;2023-06-24T22:04:31;99860.59;;;17.51;100.00
42433;BME280;28071;48.232;20.668;2023-06-24T22:09:31;99846.22;;;17.35;100.00
42433;BME280;28071;48.232;20.668;2023-06-24T22:14:32;99847.13;;;17.18;100.00
42433;BME280;28071;48.232;20.668;2023-06-24T22:19:32;99817.31;;;16.93;100.00
42433;BME280;28071;48.232;20.668;2023-06-24T22:24:33;99858.88;;;17.12;100.00
42433;BME280;28071;48.232;20.668;2023-06-24T22:29:33;99834.28;;;16.99;100.00
42433;BME280;28071;48.232;20.668;2023-06-24T22:34:34;99841.41;;;17.10;100.00
42433;BME280;28071;48.232;20.668;2023-06-24T22:39:34;99829.22;;;17.02;100.00
42433;BME280;28071;48.232;20.668;2023-06-24T22:44:34;99813.31;;;16.96;100.00
42433;BME280;28071;48.232;20.668;2023-06-24T22:49:35;99815.72;;;16.97;100.00
42433;BME280;28071;48.232;20.668;2023-06-24T22:54:35;99819.28;;;17.03;100.00
42433;BME280;28071;48.232;20.668;2023-06-24T22:59:37;99840.94;;;17.18;100.00
42433;BME280;28071;48.232;20.668;2023-06-24T23:04:37;99809.50;;;16.91;100.00
42433;BME280;28071;48.232;20.668;2023-06-24T23:09:38;99812.97;;;16.92;100.00
42433;BME280;28071;48.232;20.668;2023-06-24T23:14:39;99762.22;;;16.69;100.00
42433;BME280;28071;48.232;20.668;2023-06-24T23:19:40;99785.38;;;16.97;100.00
42433;BME280;28071;48.232;20.668;2023-06-24T23:24:42;99797.44;;;16.94;100.00
42433;BME280;28071;48.232;20.668;2023-06-24T23:29:48;99741.94;;;16.56;100.00
42433;BME280;28071;48.232;20.668;2023-06-24T23:34:49;99789.25;;;16.84;100.00
42433;BME280;28071;48.232;20.668;2023-06-24T23:39:50;99790.88;;;16.85;100.00
42433;BME280;28071;48.232;20.668;2023-06-24T23:44:50;99783.03;;;16.78;100.00
42433;BME280;28071;48.232;20.668;2023-06-24T23:49:51;99782.22;;;16.78;100.00
42433;BME280;28071;48.232;20.668;2023-06-24T23:54:51;99771.72;;;16.76;100.00
42433;BME280;28071;48.232;20.668;2023-06-24T23:59:52;99773.34;;;16.77;100.00
